createdAt,value
2016-04-20T08:28:11.144Z,1017.48
2016-04-20T08:29:11.146Z,1017.55
2016-04-20T08:30:11.180Z,1017.54
2016-04-20T08:31:11.183Z,1017.55
2016-04-20T08:32:11.201Z,1017.54
2016-04-20T08:33:11.219Z,1017.52
2016-04-20T08:34:11.238Z,1017.53
2016-04-20T08:35:11.271Z,1017.54
2016-04-20T08:36:11.274Z,1017.59
2016-04-20T08:37:11.308Z,1017.6
2016-04-20T08:38:11.310Z,1017.57
2016-04-20T08:39:11.345Z,1017.58
2016-04-20T08:40:11.363Z,1017.5
2016-04-20T08:41:11.382Z,1017.58
2016-04-20T08:42:11.400Z,1017.55
2016-04-20T08:43:11.856Z,1017.61
2016-04-20T08:44:11.437Z,1017.56
2016-04-20T08:45:11.455Z,1017.62
2016-04-20T08:46:11.489Z,1017.62
2016-04-20T08:47:11.507Z,1017.68
2016-04-20T08:48:11.526Z,1017.66
2016-04-20T08:49:11.545Z,1017.67
2016-04-20T08:50:11.562Z,1017.68
2016-04-20T08:51:11.581Z,1017.66
2016-04-20T08:52:11.598Z,1017.68
2016-04-20T08:53:11.617Z,1017.69
2016-04-20T08:54:11.651Z,1017.7
2016-04-20T08:55:11.669Z,1017.71
2016-04-20T08:56:11.688Z,1017.66
2016-04-20T08:57:11.705Z,1017.69
2016-04-20T08:58:11.725Z,1017.69
2016-04-20T08:59:11.742Z,1017.72
2016-04-20T09:00:11.761Z,1017.79
2016-04-20T09:01:11.780Z,1017.8
2016-04-20T09:02:11.797Z,1017.76
2016-04-20T09:03:11.816Z,1017.82
2016-04-20T09:04:11.849Z,1017.8
2016-04-20T09:05:11.868Z,1017.83
2016-04-20T09:06:11.885Z,1017.78
2016-04-20T09:07:12.014Z,1017.79
2016-04-20T09:08:11.923Z,1017.81
2016-04-20T09:09:11.941Z,1017.85
2016-04-20T09:10:11.960Z,1017.83
2016-04-20T09:11:11.979Z,1017.84
2016-04-20T09:12:12.012Z,1017.86
2016-04-20T09:13:12.030Z,1017.83
2016-04-20T09:14:12.049Z,1017.85
2016-04-20T09:15:12.067Z,1017.9
2016-04-20T09:16:12.085Z,1017.83
2016-04-20T09:17:12.103Z,1017.84
2016-04-20T09:18:12.122Z,1017.84
2016-04-20T09:19:12.156Z,1017.82
2016-04-20T09:20:12.174Z,1017.8
2016-04-20T09:21:12.208Z,1017.83
2016-04-20T09:22:12.205Z,1017.83
2016-04-20T09:23:12.228Z,1017.87
2016-04-20T09:24:12.247Z,1017.81
2016-04-20T09:25:12.280Z,1017.8
2016-04-20T09:26:12.299Z,1017.83
2016-04-20T09:27:12.316Z,1017.79
2016-04-20T09:28:12.335Z,1017.81
2016-04-20T09:29:12.354Z,1017.81
2016-04-20T09:30:12.372Z,1017.75
2016-04-20T09:31:12.390Z,1017.77
2016-04-20T09:32:12.424Z,1017.76
2016-04-20T09:33:12.442Z,1017.74
2016-04-20T09:34:12.460Z,1017.79
2016-04-20T09:35:12.479Z,1017.74
2016-04-20T09:36:12.497Z,1017.73
2016-04-20T09:37:12.531Z,1017.71
2016-04-20T09:38:12.549Z,1017.69
2016-04-20T09:39:12.568Z,1017.72
2016-04-20T09:40:12.586Z,1017.72
2016-04-20T09:41:12.604Z,1017.73
2016-04-20T09:42:12.623Z,1017.74
2016-04-20T09:43:12.641Z,1017.74
2016-04-20T09:44:12.675Z,1017.83
2016-04-20T09:45:12.693Z,1017.75
2016-04-20T09:46:12.711Z,1017.75
2016-04-20T09:47:12.730Z,1017.72
2016-04-20T09:48:12.748Z,1017.74
2016-04-20T09:49:12.783Z,1017.72
2016-04-20T09:50:12.800Z,1017.71
2016-04-20T09:51:12.819Z,1017.72
2016-04-20T09:52:12.837Z,1017.76
2016-04-20T09:53:12.855Z,1017.73
2016-04-20T09:54:12.874Z,1017.75
2016-04-20T09:55:12.908Z,1017.79
2016-04-20T09:56:12.926Z,1017.75
2016-04-20T09:57:12.944Z,1017.72
2016-04-20T09:58:12.963Z,1017.75
2016-04-20T09:59:12.981Z,1017.74
2016-04-20T10:00:13.015Z,1017.7
2016-04-20T10:01:13.032Z,1017.73
2016-04-20T10:02:13.051Z,1017.72
2016-04-20T10:03:13.070Z,1017.77
2016-04-20T10:04:13.087Z,1017.78
2016-04-20T10:05:13.122Z,1017.74
2016-04-20T10:06:13.140Z,1017.77
2016-04-20T10:07:13.158Z,1017.79
2016-04-20T10:08:13.192Z,1017.78
2016-04-20T10:09:13.211Z,1017.79
2016-04-20T10:10:13.229Z,1017.76
2016-04-20T10:11:13.248Z,1017.74
2016-04-20T10:12:13.266Z,1017.74
2016-04-20T10:13:13.284Z,1017.75
2016-04-20T10:14:13.318Z,1017.74
2016-04-20T10:15:13.337Z,1017.77
2016-04-20T10:16:13.355Z,1017.78
2016-04-20T10:17:13.373Z,1017.73
2016-04-20T10:18:13.392Z,1017.67
2016-04-20T10:19:13.425Z,1017.69
2016-04-20T10:20:13.444Z,1017.7
2016-04-20T10:21:13.462Z,1017.7
2016-04-20T10:22:13.480Z,1017.69
2016-04-20T10:23:13.514Z,1017.62
2016-04-20T10:24:13.533Z,1017.63
2016-04-20T10:25:13.551Z,1017.66
2016-04-20T10:26:13.569Z,1017.64
2016-04-20T10:27:13.602Z,1017.61
2016-04-20T10:28:13.621Z,1017.64
2016-04-20T10:29:13.640Z,1017.68
2016-04-20T10:30:13.674Z,1017.68
2016-04-20T10:31:13.692Z,1017.69
2016-04-20T10:32:13.710Z,1017.69
2016-04-20T10:33:13.729Z,1017.7
2016-04-20T10:34:13.747Z,1017.73
2016-04-20T10:35:13.766Z,1017.72
2016-04-20T10:36:13.799Z,1017.7
2016-04-20T10:37:13.817Z,1017.73
2016-04-20T10:38:13.836Z,1017.72
2016-04-20T10:39:13.854Z,1017.75
2016-04-20T10:40:13.887Z,1017.75
2016-04-20T10:41:13.907Z,1017.76
2016-04-20T10:42:13.925Z,1017.74
2016-04-20T10:43:13.959Z,1017.76
2016-04-20T10:44:13.977Z,1017.73
2016-04-20T10:45:13.995Z,1017.7
2016-04-20T10:46:14.014Z,1017.73
2016-04-20T10:47:14.048Z,1017.7
2016-04-20T10:48:14.066Z,1017.76
2016-04-20T10:49:14.084Z,1017.82
2016-04-20T10:50:14.149Z,1017.78
2016-04-20T10:51:14.136Z,1017.75
2016-04-20T10:52:14.155Z,1017.75
2016-04-20T10:53:14.172Z,1017.69
2016-04-20T10:54:14.191Z,1017.74
2016-04-20T10:55:14.225Z,1017.73
2016-04-20T10:56:14.244Z,1017.72
2016-04-20T10:57:14.262Z,1017.74
2016-04-20T10:58:14.280Z,1017.7
2016-04-20T10:59:14.313Z,1017.71
2016-04-20T11:00:14.332Z,1017.71
2016-04-20T11:01:14.366Z,1017.65
2016-04-20T11:02:14.385Z,1017.62
2016-04-20T11:03:14.404Z,1017.62
2016-04-20T11:04:14.421Z,1017.63
2016-04-20T11:05:14.440Z,1017.63
2016-04-20T11:06:14.473Z,1017.64
2016-04-20T11:07:14.492Z,1017.65
2016-04-20T11:08:14.510Z,1017.6
2016-04-20T11:09:14.545Z,1017.63
2016-04-20T11:10:14.562Z,1017.61
2016-04-20T11:11:14.581Z,1017.62
2016-04-20T11:12:14.599Z,1017.62
2016-04-20T11:13:14.634Z,1017.63
2016-04-20T11:14:14.651Z,1017.61
2016-04-20T11:15:14.670Z,1017.58
2016-04-20T11:16:14.703Z,1017.6
2016-04-20T11:17:14.722Z,1017.51
2016-04-20T11:18:14.740Z,1017.52
2016-04-20T11:19:14.759Z,1017.52
2016-04-20T11:20:14.825Z,1017.47
2016-04-20T11:21:14.811Z,1017.49
2016-04-20T11:22:14.830Z,1017.46
2016-04-20T11:23:14.941Z,1017.47
2016-04-20T11:24:14.881Z,1017.48
2016-04-20T11:25:14.900Z,1017.54
2016-04-20T11:26:14.933Z,1017.58
2016-04-20T11:27:14.952Z,1017.53
2016-04-20T11:28:14.985Z,1017.48
2016-04-20T11:29:14.988Z,1017.47
2016-04-20T11:30:15.022Z,1017.39
2016-04-20T11:31:15.041Z,1017.4
2016-04-20T11:32:15.060Z,1017.46
2016-04-20T11:33:15.094Z,1017.46
2016-04-20T11:34:15.112Z,1017.41
2016-04-20T11:35:15.146Z,1017.43
2016-04-20T11:36:15.163Z,1017.42
2016-04-20T11:37:15.182Z,1017.41
2016-04-20T11:38:15.201Z,1017.43
2016-04-20T11:39:15.219Z,1017.45
2016-04-20T11:40:15.253Z,1017.41
2016-04-20T11:41:15.271Z,1017.4
2016-04-20T11:42:15.304Z,1017.36
2016-04-20T11:43:15.323Z,1017.4
2016-04-20T11:44:15.341Z,1017.39
2016-04-20T11:45:15.360Z,1017.42
2016-04-20T11:46:15.394Z,1017.42
2016-04-20T11:47:15.411Z,1017.39
2016-04-20T11:48:15.446Z,1017.38
2016-04-20T11:49:15.464Z,1017.35
2016-04-20T11:50:15.498Z,1017.37
2016-04-20T11:51:15.517Z,1017.36
2016-04-20T11:52:15.535Z,1017.32
2016-04-20T11:53:15.553Z,1017.29
2016-04-20T11:54:15.587Z,1017.33
2016-04-20T11:55:15.605Z,1017.27
2016-04-20T11:56:15.624Z,1017.29
2016-04-20T11:57:15.657Z,1017.29
2016-04-20T11:58:15.676Z,1017.31
2016-04-20T11:59:15.695Z,1017.32
2016-04-20T12:00:15.728Z,1017.36
2016-04-20T12:01:15.747Z,1017.31
2016-04-20T12:02:15.765Z,1017.27
2016-04-20T12:03:15.798Z,1017.2
2016-04-20T12:04:15.863Z,1017.25
2016-04-20T12:05:15.836Z,1017.22
2016-04-20T12:06:15.869Z,1017.18
2016-04-20T12:07:15.888Z,1017.08
2016-04-20T12:08:15.906Z,1017.15
2016-04-20T12:09:15.940Z,1017.17
2016-04-20T12:10:15.958Z,1017.2
2016-04-20T12:11:15.992Z,1017.22
2016-04-20T12:12:16.011Z,1017.17
2016-04-20T12:13:16.029Z,1017.17
2016-04-20T12:14:16.063Z,1017.17
2016-04-20T12:15:16.081Z,1017.17
2016-04-20T12:16:16.099Z,1017.21
2016-04-20T12:17:16.134Z,1017.21
2016-04-20T12:18:16.152Z,1017.19
2016-04-20T12:19:16.186Z,1017.19
2016-04-20T12:20:16.204Z,1017.13
2016-04-20T12:21:16.238Z,1017.17
2016-04-20T12:22:16.256Z,1017.14
2016-04-20T12:23:16.275Z,1017.14
2016-04-20T12:24:16.292Z,1017.12
2016-04-20T12:25:16.327Z,1017.12
2016-04-20T12:26:16.344Z,1017.13
2016-04-20T12:27:16.379Z,1017.12
2016-04-20T12:28:16.397Z,1017.12
2016-04-20T12:29:16.416Z,1017.15
2016-04-20T12:30:16.449Z,1017.1
2016-04-20T12:31:16.547Z,1017.1
2016-04-20T12:32:16.579Z,1017.07
2016-04-20T12:33:16.520Z,1017.09
2016-04-20T12:34:16.538Z,1017.07
2016-04-20T12:35:16.572Z,1017.1
2016-04-20T12:36:16.591Z,1017.06
2016-04-20T12:37:16.625Z,1017.15
2016-04-20T12:38:16.659Z,1017.13
2016-04-20T12:39:16.677Z,1017.14
2016-04-20T12:40:16.696Z,1017.11
2016-04-20T12:41:16.730Z,1017.14
2016-04-20T12:42:16.748Z,1017.16
2016-04-20T12:43:16.781Z,1017.22
2016-04-20T12:44:16.800Z,1017.2
2016-04-20T12:45:16.818Z,1017.21
2016-04-20T12:46:16.852Z,1017.24
2016-04-20T12:47:16.871Z,1017.19
2016-04-20T12:48:16.904Z,1017.22
2016-04-20T12:49:16.923Z,1017.19
2016-04-20T12:50:16.941Z,1017.16
2016-04-20T12:51:16.975Z,1017.16
2016-04-20T12:52:17.009Z,1017.19
2016-04-20T12:53:17.027Z,1017.22
2016-04-20T12:54:17.045Z,1017.22
2016-04-20T12:55:17.080Z,1017.19
2016-04-20T12:56:17.098Z,1017.21
2016-04-20T12:57:17.131Z,1017.26
2016-04-20T12:58:17.150Z,1017.24
2016-04-20T12:59:17.184Z,1017.25
2016-04-20T13:00:17.202Z,1017.23
2016-04-20T13:01:17.235Z,1017.2
2016-04-20T13:02:17.254Z,1017.27
2016-04-20T13:03:17.273Z,1017.23
2016-04-20T13:04:17.307Z,1017.25
2016-04-20T13:05:17.325Z,1017.23
2016-04-20T13:06:17.359Z,1017.22
2016-04-20T13:07:17.393Z,1017.23
2016-04-20T13:08:17.411Z,1017.22
2016-04-20T13:09:17.430Z,1017.21
2016-04-20T13:10:17.463Z,1017.21
2016-04-20T13:11:17.481Z,1017.23
2016-04-20T13:12:17.515Z,1017.29
2016-04-20T13:13:17.534Z,1017.26
2016-04-20T13:14:17.568Z,1017.26
2016-04-20T13:15:17.587Z,1017.23
2016-04-20T13:16:17.620Z,1017.24
2016-04-20T13:17:17.639Z,1017.23
2016-04-20T13:18:17.688Z,1017.19
2016-04-20T13:19:17.690Z,1017.17
2016-04-20T13:20:17.725Z,1017.2
2016-04-20T13:21:17.743Z,1017.14
2016-04-20T13:22:17.777Z,1017.13
2016-04-20T13:23:17.858Z,1017.14
2016-04-20T13:24:17.875Z,1017.12
2016-04-20T13:25:17.863Z,1017.11
2016-04-20T13:26:17.881Z,1017.08
2016-04-20T13:27:17.900Z,1017.07
2016-04-20T13:28:17.934Z,1017.04
2016-04-20T13:29:17.952Z,1017.02
2016-04-20T13:30:17.986Z,1016.99
2016-04-20T13:31:18.004Z,1017.05
2016-04-20T13:32:18.039Z,1017.04
2016-04-20T13:33:18.057Z,1017.07
2016-04-20T13:34:18.091Z,1016.99
2016-04-20T13:35:18.108Z,1017.09
2016-04-20T13:36:18.143Z,1017.12
2016-04-20T13:37:18.160Z,1017.11
2016-04-20T13:38:18.196Z,1017.08
2016-04-20T13:39:18.213Z,1017.13
2016-04-20T13:40:18.247Z,1017.11
2016-04-20T13:41:18.266Z,1017.11
2016-04-20T13:42:18.299Z,1017.18
2016-04-20T13:43:18.317Z,1017.12
2016-04-20T13:44:18.352Z,1017.13
2016-04-20T13:45:18.370Z,1017.11
2016-04-20T13:46:18.420Z,1017.09
2016-04-20T13:47:18.437Z,1017.08
2016-04-20T13:48:18.473Z,1017.09
2016-04-20T13:49:18.490Z,1017.07
2016-04-20T13:50:18.509Z,1017.07
2016-04-20T13:51:18.542Z,1017.03
2016-04-20T13:52:18.562Z,1017.06
2016-04-20T13:53:18.595Z,1017.06
2016-04-20T13:54:18.613Z,1017.04
2016-04-20T13:55:18.647Z,1017.06
2016-04-20T13:56:18.665Z,1017.02
2016-04-20T13:57:18.699Z,1017.05
2016-04-20T13:58:18.718Z,1016.99
2016-04-20T13:59:18.752Z,1017
2016-04-20T14:00:18.786Z,1016.99
2016-04-20T14:01:18.804Z,1016.98
2016-04-20T14:02:18.838Z,1016.97
2016-04-20T14:03:18.856Z,1016.95
2016-04-20T14:04:18.890Z,1016.92
2016-04-20T14:05:18.908Z,1016.95
2016-04-20T14:06:18.941Z,1017.02
2016-04-20T14:07:18.977Z,1016.98
2016-04-20T14:08:18.994Z,1017.02
2016-04-20T14:09:19.029Z,1017.02
2016-04-20T14:10:19.047Z,1017.02
2016-04-20T14:11:19.080Z,1017.02
2016-04-20T14:12:19.099Z,1017.02
2016-04-20T14:13:19.133Z,1016.99
2016-04-20T14:14:19.168Z,1016.93
2016-04-20T14:15:19.185Z,1016.97
2016-04-20T14:16:19.218Z,1016.96
2016-04-20T14:17:19.237Z,1016.94
2016-04-20T14:18:19.271Z,1016.93
2016-04-20T14:19:19.290Z,1016.92
2016-04-20T14:20:19.324Z,1016.88
2016-04-20T14:21:19.342Z,1016.86
2016-04-20T14:22:19.377Z,1016.86
2016-04-20T14:23:19.395Z,1016.82
2016-04-20T14:24:19.429Z,1016.81
2016-04-20T14:25:19.463Z,1016.84
2016-04-20T14:26:19.482Z,1016.82
2016-04-20T14:27:19.515Z,1016.8
2016-04-20T14:28:19.534Z,1016.81
2016-04-20T14:29:19.568Z,1016.82
2016-04-20T14:30:19.602Z,1016.76
2016-04-20T14:31:19.620Z,1016.76
2016-04-20T14:32:19.653Z,1016.77
2016-04-20T14:33:19.672Z,1016.7
2016-04-20T14:34:19.706Z,1016.71
2016-04-20T14:35:19.740Z,1016.71
2016-04-20T14:36:19.773Z,1016.71
2016-04-20T14:37:19.776Z,1016.7
2016-04-20T14:38:19.811Z,1016.67
2016-04-20T14:39:19.845Z,1016.68
2016-04-20T14:40:19.878Z,1016.66
2016-04-20T14:41:19.897Z,1016.65
2016-04-20T14:42:19.931Z,1016.62
2016-04-20T14:43:19.949Z,1016.64
2016-04-20T14:44:19.983Z,1016.67
2016-04-20T14:45:20.002Z,1016.64
2016-04-20T14:46:20.036Z,1016.62
2016-04-20T14:47:20.069Z,1016.59
2016-04-20T14:48:20.088Z,1016.67
2016-04-20T14:49:20.106Z,1016.58
2016-04-20T14:50:20.140Z,1016.6
2016-04-20T14:51:20.189Z,1016.61
2016-04-20T14:52:20.191Z,1016.54
2016-04-20T14:53:20.226Z,1016.5
2016-04-20T14:54:20.244Z,1016.48
2016-04-20T14:55:20.279Z,1016.49
2016-04-20T14:56:20.312Z,1016.41
2016-04-20T14:57:20.330Z,1016.53
2016-04-20T14:58:20.365Z,1016.52
2016-04-20T14:59:20.383Z,1016.48
2016-04-20T15:00:20.417Z,1016.5
2016-04-20T15:01:20.435Z,1016.51
2016-04-20T15:02:20.468Z,1016.47
2016-04-20T15:03:20.487Z,1016.51
2016-04-20T15:04:20.520Z,1016.48
2016-04-20T15:05:20.555Z,1016.46
2016-04-20T15:06:20.573Z,1016.49
2016-04-20T15:07:20.686Z,1016.49
2016-04-20T15:08:20.626Z,1016.52
2016-04-20T15:09:20.754Z,1016.53
2016-04-20T15:10:20.756Z,1016.53
2016-04-20T15:11:20.759Z,1016.5
2016-04-20T15:12:20.761Z,1016.52
2016-04-20T15:13:20.780Z,1016.47
2016-04-20T15:14:20.797Z,1016.53
2016-04-20T15:15:20.816Z,1016.5
2016-04-20T15:16:20.850Z,1016.54
2016-04-20T15:17:20.883Z,1016.5
2016-04-20T15:18:20.902Z,1016.51
2016-04-20T15:19:20.936Z,1016.53
2016-04-20T15:20:20.971Z,1016.52
2016-04-20T15:21:21.019Z,1016.5
2016-04-20T15:22:21.022Z,1016.5
2016-04-20T15:23:21.057Z,1016.49
2016-04-20T15:24:21.074Z,1016.52
2016-04-20T15:25:21.109Z,1016.47
2016-04-20T15:26:21.127Z,1016.46
2016-04-20T15:27:21.160Z,1016.47
2016-04-20T15:28:21.196Z,1016.45
2016-04-20T15:29:21.213Z,1016.46
2016-04-20T15:30:21.248Z,1016.46
2016-04-20T15:31:21.281Z,1016.49
2016-04-20T15:32:21.299Z,1016.44
2016-04-20T15:33:21.334Z,1016.45
2016-04-20T15:34:21.351Z,1016.43
2016-04-20T15:35:21.386Z,1016.42
2016-04-20T15:36:21.408Z,1016.46
2016-04-20T15:37:21.442Z,1016.46
2016-04-20T15:38:21.461Z,1016.45
2016-04-20T15:39:21.494Z,1016.42
2016-04-20T15:40:21.529Z,1016.4
2016-04-20T15:41:21.563Z,1016.42
2016-04-20T15:42:21.581Z,1016.44
2016-04-20T15:43:21.616Z,1016.43
2016-04-20T15:44:21.634Z,1016.38
2016-04-20T15:45:21.667Z,1016.36
2016-04-20T15:46:21.702Z,1016.35
2016-04-20T15:47:21.720Z,1016.36
2016-04-20T15:48:21.755Z,1016.34
2016-04-20T15:49:21.788Z,1016.37
2016-04-20T15:50:21.806Z,1016.35
2016-04-20T15:51:21.840Z,1016.4
2016-04-20T15:52:21.874Z,1016.39
2016-04-20T15:53:21.893Z,1016.39
2016-04-20T15:54:21.926Z,1016.38
2016-04-20T15:55:21.960Z,1016.36
2016-04-20T15:56:21.978Z,1016.37
2016-04-20T15:57:22.012Z,1016.38
2016-04-20T15:58:22.083Z,1016.37
2016-04-20T15:59:22.143Z,1016.3
2016-04-20T16:00:22.219Z,1016.32
2016-04-20T16:01:22.294Z,1016.29
2016-04-20T16:02:22.354Z,1016.26
2016-04-20T16:03:22.411Z,1016.3
2016-04-20T16:04:22.465Z,1016.27
2016-04-20T16:06:56.863Z,1016.27
2016-04-20T16:07:56.910Z,1016.29
2016-04-20T16:08:56.980Z,1016.28
2016-04-20T16:09:56.989Z,1016.28
2016-04-20T16:10:57.012Z,1016.32
2016-04-20T16:11:57.052Z,1016.3
2016-04-20T16:12:57.089Z,1016.28
2016-04-20T16:13:57.110Z,1016.32
2016-04-20T16:14:57.146Z,1016.32
2016-04-20T16:15:57.182Z,1016.26
2016-04-20T16:16:57.201Z,1016.28
2016-04-20T16:17:57.237Z,1016.28
2016-04-20T16:18:57.257Z,1016.32
2016-04-20T16:19:57.291Z,1016.28
2016-04-20T16:20:57.326Z,1016.3
2016-04-20T16:21:57.361Z,1016.31
2016-04-20T16:22:57.380Z,1016.28
2016-04-20T16:23:57.413Z,1016.31
2016-04-20T16:24:57.448Z,1016.34
2016-04-20T16:25:57.466Z,1016.31
2016-04-20T16:26:57.501Z,1016.31
2016-04-20T16:27:57.535Z,1016.33
2016-04-20T16:28:57.553Z,1016.33
2016-04-20T16:29:57.588Z,1016.32
2016-04-20T16:30:57.622Z,1016.36
2016-04-20T16:31:57.640Z,1016.37
2016-04-20T16:32:57.674Z,1016.37
2016-04-20T16:33:57.707Z,1016.36
2016-04-20T16:34:57.741Z,1016.36
2016-04-20T16:35:57.760Z,1016.36
2016-04-20T16:36:57.809Z,1016.32
2016-04-20T16:37:57.827Z,1016.32
2016-04-20T16:38:57.846Z,1016.32
2016-04-20T16:39:57.880Z,1016.3
2016-04-20T16:40:57.914Z,1016.29
2016-04-20T16:41:57.932Z,1016.27
2016-04-20T16:42:57.966Z,1016.28
2016-04-20T16:43:57.984Z,1016.27
2016-04-20T16:44:58.018Z,1016.21
2016-04-20T16:45:58.053Z,1016.25
2016-04-20T16:46:58.086Z,1016.22
2016-04-20T16:47:58.104Z,1016.23
2016-04-20T16:48:58.139Z,1016.26
2016-04-20T16:49:58.173Z,1016.24
2016-04-20T16:50:58.207Z,1016.2
2016-04-20T16:51:58.225Z,1016.21
2016-04-20T16:52:58.259Z,1016.23
2016-04-20T16:53:58.277Z,1016.19
2016-04-20T16:54:58.311Z,1016.2
2016-04-20T16:55:58.345Z,1016.18
2016-04-20T16:56:58.363Z,1016.18
2016-04-20T16:57:58.397Z,1016.16
2016-04-20T16:58:58.431Z,1016.17
2016-04-20T16:59:58.450Z,1016.16
2016-04-20T17:00:58.483Z,1016.16
2016-04-20T17:01:58.517Z,1016.17
2016-04-20T17:02:58.551Z,1016.17
2016-04-20T17:03:58.569Z,1016.17
2016-04-20T17:04:58.604Z,1016.14
2016-04-20T17:05:58.638Z,1016.17
2016-04-20T17:06:58.655Z,1016.19
2016-04-20T17:07:58.690Z,1016.16
2016-04-20T17:08:58.724Z,1016.14
2016-04-20T17:09:58.742Z,1016.15
2016-04-20T17:10:58.776Z,1016.17
2016-04-20T17:11:58.810Z,1016.15
2016-04-20T17:12:58.829Z,1016.16
2016-04-20T17:13:58.862Z,1016.18
2016-04-20T17:14:58.896Z,1016.18
2016-04-20T17:15:58.915Z,1016.16
2016-04-20T17:16:58.949Z,1016.14
2016-04-20T17:17:58.982Z,1016.12
2016-04-20T17:18:59.000Z,1016.16
2016-04-20T17:19:59.034Z,1016.16
2016-04-20T17:20:59.068Z,1016.14
2016-04-20T17:21:59.087Z,1016.15
2016-04-20T17:22:59.121Z,1016.14
2016-04-20T17:23:59.155Z,1016.15
2016-04-20T17:24:59.173Z,1016.2
2016-04-20T17:25:59.207Z,1016.17
2016-04-20T17:26:59.241Z,1016.13
2016-04-20T17:27:59.258Z,1016.18
2016-04-20T17:28:59.293Z,1016.14
2016-04-20T17:29:59.328Z,1016.11
2016-04-20T17:30:59.345Z,1016.15
2016-04-20T17:31:59.379Z,1016.14
2016-04-20T17:32:59.414Z,1016.14
2016-04-20T17:33:59.432Z,1016.14
2016-04-20T17:34:59.466Z,1016.08
2016-04-20T17:35:59.484Z,1016.11
2016-04-20T17:36:59.518Z,1016.09
2016-04-20T17:37:59.552Z,1016.08
2016-04-20T17:38:59.570Z,1016.1
2016-04-20T17:39:59.604Z,1016.07
2016-04-20T17:40:59.638Z,1016.06
2016-04-20T17:41:59.672Z,1016.04
2016-04-20T17:42:59.691Z,1016.07
2016-04-20T17:43:59.724Z,1016.1
2016-04-20T17:44:59.758Z,1016.09
2016-04-20T17:45:59.777Z,1016.1
2016-04-20T17:46:59.795Z,1016.11
2016-04-20T17:47:59.829Z,1016.1
2016-04-20T17:48:59.862Z,1016.12
2016-04-20T17:49:59.882Z,1016.13
2016-04-20T17:50:59.915Z,1016.11
2016-04-20T17:51:59.934Z,1016.12
2016-04-20T17:52:59.967Z,1016.13
2016-04-20T17:54:00.070Z,1016.12
2016-04-20T17:55:00.026Z,1016.14
2016-04-20T17:56:00.043Z,1016.11
2016-04-20T17:57:00.078Z,1016.13
2016-04-20T17:58:00.112Z,1016.11
2016-04-20T17:59:00.129Z,1016.11
2016-04-20T18:00:00.164Z,1016.17
2016-04-20T18:01:00.197Z,1016.11
2016-04-20T18:02:00.216Z,1016.12
2016-04-20T18:03:00.250Z,1016.1
2016-04-20T18:04:00.283Z,1016.11
2016-04-20T18:05:00.303Z,1016.14
2016-04-20T18:06:00.320Z,1016.12
2016-04-20T18:07:00.353Z,1016.17
2016-04-20T18:08:00.386Z,1016.18
2016-04-20T18:09:00.406Z,1016.19
2016-04-20T18:10:00.439Z,1016.18
2016-04-20T18:11:00.472Z,1016.13
2016-04-20T18:12:00.492Z,1016.17
2016-04-20T18:13:00.525Z,1016.17
2016-04-20T18:14:00.543Z,1016.17
2016-04-20T18:15:00.561Z,1016.17
2016-04-20T18:16:00.595Z,1016.17
2016-04-20T18:17:00.630Z,1016.17
2016-04-20T18:18:00.652Z,1016.14
2016-04-20T18:19:00.670Z,1016.19
2016-04-20T18:20:00.703Z,1016.21
2016-04-20T18:21:00.723Z,1016.18
2016-04-20T18:22:00.761Z,1016.21
2016-04-20T18:23:00.779Z,1016.16
2016-04-20T18:24:00.814Z,1016.11
2016-04-20T18:25:00.831Z,1016.13
2016-04-20T18:26:00.865Z,1016.17
2016-04-20T18:27:00.900Z,1016.16
2016-04-20T18:28:00.917Z,1016.17
2016-04-20T18:29:00.952Z,1016.16
2016-04-20T18:30:00.970Z,1016.25
2016-04-20T18:31:00.988Z,1016.2
2016-04-20T18:32:01.022Z,1016.23
2016-04-20T18:33:01.041Z,1016.25
2016-04-20T18:34:01.074Z,1016.23
2016-04-20T18:35:01.093Z,1016.22
2016-04-20T18:36:01.127Z,1016.28
2016-04-20T18:37:01.146Z,1016.22
2016-04-20T18:38:01.179Z,1016.25
2016-04-20T18:39:01.213Z,1016.21
2016-04-20T18:40:01.247Z,1016.26
2016-04-20T18:41:01.266Z,1016.23
2016-04-20T18:42:01.284Z,1016.21
2016-04-20T18:43:01.302Z,1016.28
2016-04-20T18:44:01.335Z,1016.27
2016-04-20T18:45:01.354Z,1016.29
2016-04-20T18:46:01.387Z,1016.23
2016-04-20T18:47:01.423Z,1016.24
2016-04-20T18:48:01.440Z,1016.2
2016-04-20T18:49:01.459Z,1016.22
2016-04-20T18:50:01.492Z,1016.24
2016-04-20T18:51:01.511Z,1016.26
2016-04-20T18:52:01.544Z,1016.25
2016-04-20T18:53:01.564Z,1016.26
2016-04-20T18:54:01.597Z,1016.25
2016-04-20T18:55:01.615Z,1016.23
2016-04-20T18:56:01.650Z,1016.25
2016-04-20T18:57:01.667Z,1016.25
2016-04-20T18:58:01.748Z,1016.29
2016-04-20T18:59:01.767Z,1016.24
2016-04-20T19:00:01.769Z,1016.25
2016-04-20T19:01:01.820Z,1016.23
2016-04-20T19:02:01.853Z,1016.25
2016-04-20T19:03:01.871Z,1016.23
2016-04-20T19:04:01.889Z,1016.25
2016-04-20T19:05:01.908Z,1016.28
2016-04-20T19:06:01.942Z,1016.26
2016-04-20T19:07:01.977Z,1016.3
2016-04-20T19:08:01.993Z,1016.27
2016-04-20T19:09:02.027Z,1016.29
2016-04-20T19:10:02.046Z,1016.27
2016-04-20T19:11:02.065Z,1016.31
2016-04-20T19:12:02.098Z,1016.31
2016-04-20T19:13:02.118Z,1016.32
2016-04-20T19:14:02.151Z,1016.37
2016-04-20T19:15:02.169Z,1016.35
2016-04-20T19:16:02.188Z,1016.37
2016-04-20T19:17:02.221Z,1016.42
2016-04-20T19:18:02.239Z,1016.4
2016-04-20T19:19:02.258Z,1016.44
2016-04-20T19:20:02.292Z,1016.43
2016-04-20T19:21:02.295Z,1016.47
2016-04-20T19:22:02.345Z,1016.49
2016-04-20T19:23:02.362Z,1016.51
2016-04-20T19:24:02.350Z,1016.5
2016-04-20T19:25:02.367Z,1016.5
2016-04-20T19:26:02.386Z,1016.51
2016-04-20T19:27:02.420Z,1016.53
2016-04-20T19:28:02.439Z,1016.51
2016-04-20T19:29:02.472Z,1016.53
2016-04-20T19:30:02.491Z,1016.52
2016-04-20T19:31:02.509Z,1016.53
2016-04-20T19:32:02.543Z,1016.56
2016-04-20T19:33:02.562Z,1016.54
2016-04-20T19:34:02.595Z,1016.52
2016-04-20T19:35:02.613Z,1016.54
2016-04-20T19:36:02.632Z,1016.47
2016-04-20T19:37:02.666Z,1016.46
2016-04-20T19:38:02.684Z,1016.49
2016-04-20T19:39:02.719Z,1016.52
2016-04-20T19:40:02.736Z,1016.5
2016-04-20T19:41:02.771Z,1016.54
2016-04-20T19:42:02.789Z,1016.55
2016-04-20T19:43:02.807Z,1016.54
2016-04-20T19:44:02.841Z,1016.52
2016-04-20T19:45:02.859Z,1016.53
2016-04-20T19:46:02.877Z,1016.57
2016-04-20T19:47:02.912Z,1016.55
2016-04-20T19:48:02.930Z,1016.53
2016-04-20T19:49:02.964Z,1016.56
2016-04-20T19:50:02.982Z,1016.53
2016-04-20T19:51:03.001Z,1016.57
2016-04-20T19:52:03.018Z,1016.55
2016-04-20T19:53:03.053Z,1016.52
2016-04-20T19:54:03.070Z,1016.56
2016-04-20T19:55:03.105Z,1016.56
2016-04-20T19:56:03.123Z,1016.56
2016-04-20T19:57:03.142Z,1016.53
2016-04-20T19:58:03.175Z,1016.56
2016-04-20T19:59:03.194Z,1016.54
2016-04-20T20:00:03.212Z,1016.55
2016-04-20T20:01:03.231Z,1016.51
2016-04-20T20:02:03.264Z,1016.54
2016-04-20T20:03:03.283Z,1016.54
2016-04-20T20:04:03.300Z,1016.55
2016-04-20T20:05:03.336Z,1016.58
2016-04-20T20:06:03.369Z,1016.52
2016-04-20T20:07:03.388Z,1016.57
2016-04-20T20:08:03.405Z,1016.52
2016-04-20T20:09:03.424Z,1016.54
2016-04-20T20:10:03.441Z,1016.53
2016-04-20T20:11:03.476Z,1016.52
2016-04-20T20:12:03.495Z,1016.49
2016-04-20T20:13:03.512Z,1016.5
2016-04-20T20:14:03.546Z,1016.48
2016-04-20T20:15:03.565Z,1016.5
2016-04-20T20:16:03.583Z,1016.52
2016-04-20T20:17:03.618Z,1016.46
2016-04-20T20:18:03.651Z,1016.48
2016-04-20T20:19:03.670Z,1016.49
2016-04-20T20:20:03.688Z,1016.46
2016-04-20T20:21:03.706Z,1016.48
2016-04-20T20:22:03.750Z,1016.49
2016-04-20T20:23:03.745Z,1016.48
2016-04-20T20:24:03.779Z,1016.46
2016-04-20T20:25:03.797Z,1016.48
2016-04-20T20:26:03.816Z,1016.47
2016-04-20T20:27:03.864Z,1016.44
2016-04-20T20:28:03.868Z,1016.42
2016-04-20T20:29:03.886Z,1016.44
2016-04-20T20:30:03.919Z,1016.42
2016-04-20T20:31:03.939Z,1016.43
2016-04-20T20:32:03.957Z,1016.41
2016-04-20T20:33:03.975Z,1016.43
2016-04-20T20:34:04.008Z,1016.44
2016-04-20T20:35:04.027Z,1016.39
2016-04-20T20:36:04.046Z,1016.42
2016-04-20T20:37:04.079Z,1016.38